sensor_id;sensor_type;location;lat;lon;timestamp;temperature;humidity
5556;DHT22;2801;50.972;7.856;2022-07-06T00:00:55;13.30;99.90
5556;DHT22;2801;50.972;7.856;2022-07-06T00:03:22;13.50;99.90
5556;DHT22;2801;50.972;7.856;2022-07-06T00:05:48;13.60;99.90
5556;DHT22;2801;50.972;7.856;2022-07-06T00:08:15;13.70;99.90
5556;DHT22;2801;50.972;7.856;2022-07-06T00:10:42;13.90;99.90
5556;DHT22;2801;50.972;7.856;2022-07-06T00:13:10;14.00;99.90
5556;DHT22;2801;50.972;7.856;2022-07-06T00:15:37;14.10;99.90
5556;DHT22;2801;50.972;7.856;2022-07-06T00:18:04;14.10;99.90
5556;DHT22;2801;50.972;7.856;2022-07-06T00:20:31;14.20;99.90
5556;DHT22;2801;50.972;7.856;2022-07-06T00:22:58;14.10;99.90
5556;DHT22;2801;50.972;7.856;2022-07-06T00:25:25;14.20;99.90
5556;DHT22;2801;50.972;7.856;2022-07-06T00:27:51;14.20;99.90
5556;DHT22;2801;50.972;7.856;2022-07-06T00:30:18;14.10;99.90
5556;DHT22;2801;50.972;7.856;2022-07-06T00:32:45;14.10;99.90
5556;DHT22;2801;50.972;7.856;2022-07-06T00:35:12;14.10;99.90
5556;DHT22;2801;50.972;7.856;2022-07-06T00:37:39;14.00;99.90
5556;DHT22;2801;50.972;7.856;2022-07-06T00:40:07;14.00;99.90
5556;DHT22;2801;50.972;7.856;2022-07-06T00:42:46;13.90;99.90
5556;DHT22;2801;50.972;7.856;2022-07-06T00:45:15;13.70;99.90
5556;DHT22;2801;50.972;7.856;2022-07-06T00:47:44;13.60;99.90
5556;DHT22;2801;50.972;7.856;2022-07-06T00:50:14;13.40;99.90
5556;DHT22;2801;50.972;7.856;2022-07-06T00:52:54;13.30;99.90
5556;DHT22;2801;50.972;7.856;2022-07-06T00:55:25;13.20;99.90
5556;DHT22;2801;50.972;7.856;2022-07-06T00:57:57;13.00;99.90
5556;DHT22;2801;50.972;7.856;2022-07-06T01:00:27;12.90;99.90
5556;DHT22;2801;50.972;7.856;2022-07-06T01:02:55;12.90;99.90
5556;DHT22;2801;50.972;7.856;2022-07-06T01:05:23;12.80;99.90
5556;DHT22;2801;50.972;7.856;2022-07-06T01:07:52;12.80;99.90
5556;DHT22;2801;50.972;7.856;2022-07-06T01:10:21;12.90;99.90
5556;DHT22;2801;50.972;7.856;2022-07-06T01:12:48;12.70;99.90
5556;DHT22;2801;50.972;7.856;2022-07-06T01:15:21;12.60;99.90
5556;DHT22;2801;50.972;7.856;2022-07-06T01:17:51;12.60;99.90
5556;DHT22;2801;50.972;7.856;2022-07-06T01:20:20;12.50;99.90
5556;DHT22;2801;50.972;7.856;2022-07-06T01:22:50;12.60;99.90
5556;DHT22;2801;50.972;7.856;2022-07-06T01:25:20;12.60;99.90
5556;DHT22;2801;50.972;7.856;2022-07-06T01:27:47;12.70;99.90
5556;DHT22;2801;50.972;7.856;2022-07-06T01:30:16;12.70;99.90
5556;DHT22;2801;50.972;7.856;2022-07-06T01:32:44;12.70;99.90
5556;DHT22;2801;50.972;7.856;2022-07-06T01:35:14;12.70;99.90
5556;DHT22;2801;50.972;7.856;2022-07-06T01:37:41;12.60;99.90
5556;DHT22;2801;50.972;7.856;2022-07-06T01:40:10;12.50;99.90
5556;DHT22;2801;50.972;7.856;2022-07-06T01:42:39;12.50;99.90
5556;DHT22;2801;50.972;7.856;2022-07-06T01:45:07;12.40;99.90
5556;DHT22;2801;50.972;7.856;2022-07-06T01:47:35;12.30;99.90
5556;DHT22;2801;50.972;7.856;2022-07-06T01:50:05;12.20;99.90
5556;DHT22;2801;50.972;7.856;2022-07-06T01:52:33;12.10;99.90
5556;DHT22;2801;50.972;7.856;2022-07-06T01:55:00;12.00;99.90
5556;DHT22;2801;50.972;7.856;2022-07-06T01:57:27;12.00;99.90
5556;DHT22;2801;50.972;7.856;2022-07-06T01:59:54;11.90;99.90
5556;DHT22;2801;50.972;7.856;2022-07-06T02:02:20;11.90;99.90
5556;DHT22;2801;50.972;7.856;2022-07-06T02:25:21;12.20;99.90
5556;DHT22;2801;50.972;7.856;2022-07-06T02:27:48;12.20;99.90
5556;DHT22;2801;50.972;7.856;2022-07-06T02:30:15;12.20;99.90
5556;DHT22;2801;50.972;7.856;2022-07-06T02:32:42;12.10;99.90
5556;DHT22;2801;50.972;7.856;2022-07-06T02:35:09;12.00;99.90
5556;DHT22;2801;50.972;7.856;2022-07-06T02:37:36;12.00;99.90
5556;DHT22;2801;50.972;7.856;2022-07-06T02:40:04;11.90;99.90
5556;DHT22;2801;50.972;7.856;2022-07-06T02:42:31;11.80;99.90
5556;DHT22;2801;50.972;7.856;2022-07-06T02:44:59;11.70;99.90
5556;DHT22;2801;50.972;7.856;2022-07-06T02:47:25;11.60;99.90
5556;DHT22;2801;50.972;7.856;2022-07-06T02:49:54;11.60;99.90
5556;DHT22;2801;50.972;7.856;2022-07-06T02:52:21;11.40;99.90
5556;DHT22;2801;50.972;7.856;2022-07-06T02:54:48;11.30;99.90
5556;DHT22;2801;50.972;7.856;2022-07-06T02:57:16;11.20;99.90
5556;DHT22;2801;50.972;7.856;2022-07-06T02:59:44;11.20;99.90
5556;DHT22;2801;50.972;7.856;2022-07-06T03:02:12;11.10;99.90
5556;DHT22;2801;50.972;7.856;2022-07-06T03:04:39;11.00;99.90
5556;DHT22;2801;50.972;7.856;2022-07-06T03:07:06;10.80;99.90
5556;DHT22;2801;50.972;7.856;2022-07-06T03:09:33;10.70;99.90
5556;DHT22;2801;50.972;7.856;2022-07-06T03:12:00;10.60;99.90
5556;DHT22;2801;50.972;7.856;2022-07-06T03:14:27;10.50;99.90
5556;DHT22;2801;50.972;7.856;2022-07-06T03:16:54;10.40;99.90
5556;DHT22;2801;50.972;7.856;2022-07-06T03:19:21;10.40;99.90
5556;DHT22;2801;50.972;7.856;2022-07-06T03:21:48;10.40;99.90
5556;DHT22;2801;50.972;7.856;2022-07-06T03:24:15;10.40;99.90
5556;DHT22;2801;50.972;7.856;2022-07-06T03:26:42;10.50;99.90
5556;DHT22;2801;50.972;7.856;2022-07-06T03:29:09;10.50;99.90
5556;DHT22;2801;50.972;7.856;2022-07-06T03:31:36;10.50;99.90
5556;DHT22;2801;50.972;7.856;2022-07-06T03:34:03;10.40;99.90
5556;DHT22;2801;50.972;7.856;2022-07-06T03:36:30;10.40;99.90
5556;DHT22;2801;50.972;7.856;2022-07-06T03:39:04;10.30;99.90
5556;DHT22;2801;50.972;7.856;2022-07-06T03:41:31;10.30;99.90
5556;DHT22;2801;50.972;7.856;2022-07-06T03:43:59;10.30;99.90
5556;DHT22;2801;50.972;7.856;2022-07-06T03:46:26;10.20;99.90
5556;DHT22;2801;50.972;7.856;2022-07-06T03:48:55;10.30;99.90
5556;DHT22;2801;50.972;7.856;2022-07-06T03:51:22;10.30;99.90
5556;DHT22;2801;50.972;7.856;2022-07-06T03:53:49;10.30;99.90
5556;DHT22;2801;50.972;7.856;2022-07-06T03:56:16;10.30;99.90
5556;DHT22;2801;50.972;7.856;2022-07-06T03:58:56;10.30;99.90
5556;DHT22;2801;50.972;7.856;2022-07-06T04:01:24;10.40;99.90
5556;DHT22;2801;50.972;7.856;2022-07-06T04:03:51;10.40;99.90
5556;DHT22;2801;50.972;7.856;2022-07-06T04:06:19;10.40;99.90
5556;DHT22;2801;50.972;7.856;2022-07-06T04:08:46;10.40;99.90
5556;DHT22;2801;50.972;7.856;2022-07-06T04:11:13;10.50;99.90
5556;DHT22;2801;50.972;7.856;2022-07-06T04:13:40;10.50;99.90
5556;DHT22;2801;50.972;7.856;2022-07-06T04:16:07;10.50;99.90
5556;DHT22;2801;50.972;7.856;2022-07-06T04:18:35;10.50;99.90
5556;DHT22;2801;50.972;7.856;2022-07-06T04:21:03;10.50;99.90
5556;DHT22;2801;50.972;7.856;2022-07-06T04:23:30;10.50;99.90
5556;DHT22;2801;50.972;7.856;2022-07-06T04:25:57;10.50;99.90
5556;DHT22;2801;50.972;7.856;2022-07-06T04:28:24;10.50;99.90
5556;DHT22;2801;50.972;7.856;2022-07-06T04:30:51;10.60;99.90
5556;DHT22;2801;50.972;7.856;2022-07-06T04:33:18;10.60;99.90
5556;DHT22;2801;50.972;7.856;2022-07-06T04:35:45;10.70;99.90
5556;DHT22;2801;50.972;7.856;2022-07-06T04:38:12;10.80;99.90
5556;DHT22;2801;50.972;7.856;2022-07-06T04:40:39;10.90;99.90
5556;DHT22;2801;50.972;7.856;2022-07-06T04:43:06;11.10;99.90
5556;DHT22;2801;50.972;7.856;2022-07-06T04:45:33;11.20;99.90
5556;DHT22;2801;50.972;7.856;2022-07-06T04:48:00;11.40;99.90
5556;DHT22;2801;50.972;7.856;2022-07-06T04:50:27;11.50;99.90
5556;DHT22;2801;50.972;7.856;2022-07-06T04:52:54;11.60;99.90
5556;DHT22;2801;50.972;7.856;2022-07-06T04:55:21;11.80;99.90
5556;DHT22;2801;50.972;7.856;2022-07-06T04:57:47;11.90;99.90
5556;DHT22;2801;50.972;7.856;2022-07-06T05:00:15;12.00;99.90
5556;DHT22;2801;50.972;7.856;2022-07-06T05:02:42;12.20;99.90
5556;DHT22;2801;50.972;7.856;2022-07-06T05:05:09;12.20;99.90
5556;DHT22;2801;50.972;7.856;2022-07-06T05:07:36;12.40;99.90
5556;DHT22;2801;50.972;7.856;2022-07-06T05:10:10;12.80;99.90
5556;DHT22;2801;50.972;7.856;2022-07-06T05:12:38;13.40;99.90
5556;DHT22;2801;50.972;7.856;2022-07-06T05:15:06;14.10;99.90
5556;DHT22;2801;50.972;7.856;2022-07-06T05:17:33;14.70;99.90
5556;DHT22;2801;50.972;7.856;2022-07-06T05:20:00;15.20;99.90
5556;DHT22;2801;50.972;7.856;2022-07-06T05:22:27;15.80;99.90
5556;DHT22;2801;50.972;7.856;2022-07-06T05:24:54;16.30;99.90
5556;DHT22;2801;50.972;7.856;2022-07-06T05:27:21;16.70;99.90
5556;DHT22;2801;50.972;7.856;2022-07-06T05:29:48;16.90;99.90
5556;DHT22;2801;50.972;7.856;2022-07-06T05:32:15;17.10;99.90
5556;DHT22;2801;50.972;7.856;2022-07-06T05:34:42;17.10;99.90
5556;DHT22;2801;50.972;7.856;2022-07-06T05:37:09;17.20;99.90
5556;DHT22;2801;50.972;7.856;2022-07-06T05:39:36;17.50;99.90
5556;DHT22;2801;50.972;7.856;2022-07-06T05:42:08;17.80;99.90
5556;DHT22;2801;50.972;7.856;2022-07-06T05:44:35;18.20;99.90
5556;DHT22;2801;50.972;7.856;2022-07-06T05:47:02;18.50;99.90
5556;DHT22;2801;50.972;7.856;2022-07-06T05:49:47;18.90;99.90
5556;DHT22;2801;50.972;7.856;2022-07-06T05:52:32;19.00;99.90
5556;DHT22;2801;50.972;7.856;2022-07-06T05:55:00;19.10;99.90
5556;DHT22;2801;50.972;7.856;2022-07-06T05:57:27;19.00;99.60
5556;DHT22;2801;50.972;7.856;2022-07-06T05:59:54;18.60;99.00
5556;DHT22;2801;50.972;7.856;2022-07-06T06:02:21;18.20;98.70
5556;DHT22;2801;50.972;7.856;2022-07-06T06:04:48;17.50;99.60
5556;DHT22;2801;50.972;7.856;2022-07-06T06:07:14;16.90;99.90
5556;DHT22;2801;50.972;7.856;2022-07-06T06:09:41;16.50;99.90
5556;DHT22;2801;50.972;7.856;2022-07-06T06:12:08;16.00;99.90
5556;DHT22;2801;50.972;7.856;2022-07-06T06:14:35;16.20;99.90
5556;DHT22;2801;50.972;7.856;2022-07-06T06:17:03;16.80;99.90
5556;DHT22;2801;50.972;7.856;2022-07-06T06:19:35;17.50;99.90
5556;DHT22;2801;50.972;7.856;2022-07-06T06:22:03;18.10;99.90
5556;DHT22;2801;50.972;7.856;2022-07-06T06:24:30;18.90;99.80
5556;DHT22;2801;50.972;7.856;2022-07-06T06:26:57;19.70;98.00
5556;DHT22;2801;50.972;7.856;2022-07-06T06:29:25;20.40;96.80
5556;DHT22;2801;50.972;7.856;2022-07-06T06:31:52;20.90;96.80
5556;DHT22;2801;50.972;7.856;2022-07-06T06:34:19;21.40;95.50
5556;DHT22;2801;50.972;7.856;2022-07-06T06:36:46;21.50;94.00
5556;DHT22;2801;50.972;7.856;2022-07-06T06:39:13;21.20;94.30
5556;DHT22;2801;50.972;7.856;2022-07-06T06:41:40;21.50;93.70
5556;DHT22;2801;50.972;7.856;2022-07-06T06:44:07;21.70;93.00
5556;DHT22;2801;50.972;7.856;2022-07-06T06:46:34;21.70;92.00
5556;DHT22;2801;50.972;7.856;2022-07-06T06:49:01;21.40;91.30
5556;DHT22;2801;50.972;7.856;2022-07-06T06:51:28;20.50;91.30
5556;DHT22;2801;50.972;7.856;2022-07-06T06:53:55;19.80;92.50
5556;DHT22;2801;50.972;7.856;2022-07-06T06:56:22;19.40;93.00
5556;DHT22;2801;50.972;7.856;2022-07-06T06:58:49;19.30;93.40
5556;DHT22;2801;50.972;7.856;2022-07-06T07:01:36;18.80;93.30
5556;DHT22;2801;50.972;7.856;2022-07-06T07:04:03;18.20;94.20
5556;DHT22;2801;50.972;7.856;2022-07-06T07:06:30;17.80;95.00
5556;DHT22;2801;50.972;7.856;2022-07-06T07:08:57;17.40;95.70
5556;DHT22;2801;50.972;7.856;2022-07-06T07:11:24;17.00;96.00
5556;DHT22;2801;50.972;7.856;2022-07-06T07:13:51;16.80;96.50
5556;DHT22;2801;50.972;7.856;2022-07-06T07:16:18;16.60;96.80
5556;DHT22;2801;50.972;7.856;2022-07-06T07:18:44;16.40;97.20
5556;DHT22;2801;50.972;7.856;2022-07-06T07:21:11;16.30;97.70
5556;DHT22;2801;50.972;7.856;2022-07-06T07:23:39;16.10;97.90
5556;DHT22;2801;50.972;7.856;2022-07-06T07:26:05;16.00;98.20
5556;DHT22;2801;50.972;7.856;2022-07-06T07:28:33;15.80;98.70
5556;DHT22;2801;50.972;7.856;2022-07-06T07:31:00;15.80;98.70
5556;DHT22;2801;50.972;7.856;2022-07-06T07:33:27;15.70;99.00
5556;DHT22;2801;50.972;7.856;2022-07-06T07:35:54;16.10;99.60
5556;DHT22;2801;50.972;7.856;2022-07-06T07:38:21;16.50;99.10
5556;DHT22;2801;50.972;7.856;2022-07-06T07:40:49;16.80;98.80
5556;DHT22;2801;50.972;7.856;2022-07-06T07:43:15;17.00;98.50
5556;DHT22;2801;50.972;7.856;2022-07-06T07:45:42;17.20;98.20
5556;DHT22;2801;50.972;7.856;2022-07-06T07:48:09;17.40;98.10
5556;DHT22;2801;50.972;7.856;2022-07-06T07:50:36;17.70;98.20
5556;DHT22;2801;50.972;7.856;2022-07-06T07:53:03;17.80;97.20
5556;DHT22;2801;50.972;7.856;2022-07-06T07:55:30;17.50;97.20
5556;DHT22;2801;50.972;7.856;2022-07-06T07:58:08;17.20;97.60
5556;DHT22;2801;50.972;7.856;2022-07-06T08:00:35;17.00;98.00
5556;DHT22;2801;50.972;7.856;2022-07-06T08:03:03;16.90;98.20
5556;DHT22;2801;50.972;7.856;2022-07-06T08:05:30;17.10;98.70
5556;DHT22;2801;50.972;7.856;2022-07-06T08:07:57;17.60;98.10
5556;DHT22;2801;50.972;7.856;2022-07-06T08:10:24;17.80;98.00
5556;DHT22;2801;50.972;7.856;2022-07-06T08:12:51;17.70;96.70
5556;DHT22;2801;50.972;7.856;2022-07-06T08:15:18;17.50;96.20
5556;DHT22;2801;50.972;7.856;2022-07-06T08:17:45;17.30;96.60
5556;DHT22;2801;50.972;7.856;2022-07-06T08:20:14;17.20;96.50
5556;DHT22;2801;50.972;7.856;2022-07-06T08:22:42;17.10;96.70
5556;DHT22;2801;50.972;7.856;2022-07-06T08:25:10;17.00;96.90
5556;DHT22;2801;50.972;7.856;2022-07-06T08:27:37;16.80;96.60
5556;DHT22;2801;50.972;7.856;2022-07-06T08:30:05;16.60;96.70
5556;DHT22;2801;50.972;7.856;2022-07-06T08:32:32;16.40;97.00
5556;DHT22;2801;50.972;7.856;2022-07-06T08:35:22;16.30;97.10
5556;DHT22;2801;50.972;7.856;2022-07-06T08:37:48;16.30;97.10
5556;DHT22;2801;50.972;7.856;2022-07-06T08:40:15;16.20;97.40
5556;DHT22;2801;50.972;7.856;2022-07-06T08:42:44;16.20;97.60
5556;DHT22;2801;50.972;7.856;2022-07-06T08:45:13;16.20;97.70
5556;DHT22;2801;50.972;7.856;2022-07-06T08:47:41;16.30;97.50
5556;DHT22;2801;50.972;7.856;2022-07-06T08:50:09;16.30;97.20
5556;DHT22;2801;50.972;7.856;2022-07-06T08:52:37;16.40;97.00
5556;DHT22;2801;50.972;7.856;2022-07-06T08:55:06;16.60;96.80
5556;DHT22;2801;50.972;7.856;2022-07-06T08:57:35;16.90;96.30
5556;DHT22;2801;50.972;7.856;2022-07-06T09:00:03;17.50;96.10
5556;DHT22;2801;50.972;7.856;2022-07-06T09:02:30;18.10;95.70
5556;DHT22;2801;50.972;7.856;2022-07-06T09:04:58;18.60;95.40
5556;DHT22;2801;50.972;7.856;2022-07-06T09:07:29;18.90;94.80
5556;DHT22;2801;50.972;7.856;2022-07-06T09:10:18;19.30;94.10
5556;DHT22;2801;50.972;7.856;2022-07-06T09:12:47;19.60;93.10
5556;DHT22;2801;50.972;7.856;2022-07-06T09:15:15;19.50;91.30
5556;DHT22;2801;50.972;7.856;2022-07-06T09:17:43;19.10;91.50
5556;DHT22;2801;50.972;7.856;2022-07-06T09:20:12;18.80;91.40
5556;DHT22;2801;50.972;7.856;2022-07-06T09:22:40;18.60;91.90
5556;DHT22;2801;50.972;7.856;2022-07-06T09:25:15;18.60;92.60
5556;DHT22;2801;50.972;7.856;2022-07-06T09:27:45;18.80;92.50
5556;DHT22;2801;50.972;7.856;2022-07-06T09:30:22;18.80;92.40
5556;DHT22;2801;50.972;7.856;2022-07-06T09:32:51;19.00;92.20
5556;DHT22;2801;50.972;7.856;2022-07-06T09:38:08;19.60;91.70
5556;DHT22;2801;50.972;7.856;2022-07-06T09:40:40;20.60;91.00
5556;DHT22;2801;50.972;7.856;2022-07-06T09:43:16;22.40;86.00
5556;DHT22;2801;50.972;7.856;2022-07-06T09:45:55;23.50;80.70
5556;DHT22;2801;50.972;7.856;2022-07-06T09:48:27;23.20;78.60
5556;DHT22;2801;50.972;7.856;2022-07-06T09:51:02;22.50;78.00
5556;DHT22;2801;50.972;7.856;2022-07-06T09:53:29;21.70;79.30
5556;DHT22;2801;50.972;7.856;2022-07-06T09:55:57;21.10;81.00
5556;DHT22;2801;50.972;7.856;2022-07-06T09:58:28;20.70;82.70
5556;DHT22;2801;50.972;7.856;2022-07-06T10:01:28;20.40;83.30
5556;DHT22;2801;50.972;7.856;2022-07-06T10:03:56;20.10;83.20
5556;DHT22;2801;50.972;7.856;2022-07-06T10:06:25;20.00;82.70
5556;DHT22;2801;50.972;7.856;2022-07-06T10:08:54;20.10;82.10
5556;DHT22;2801;50.972;7.856;2022-07-06T10:11:24;20.50;80.50
5556;DHT22;2801;50.972;7.856;2022-07-06T10:13:56;20.50;81.10
5556;DHT22;2801;50.972;7.856;2022-07-06T10:16:24;20.40;81.50
5556;DHT22;2801;50.972;7.856;2022-07-06T10:18:52;20.30;81.90
5556;DHT22;2801;50.972;7.856;2022-07-06T10:21:22;20.20;82.20
5556;DHT22;2801;50.972;7.856;2022-07-06T10:23:51;20.10;82.70
5556;DHT22;2801;50.972;7.856;2022-07-06T10:26:18;20.10;82.10
5556;DHT22;2801;50.972;7.856;2022-07-06T10:28:47;19.90;81.50
5556;DHT22;2801;50.972;7.856;2022-07-06T10:31:16;19.90;82.40
5556;DHT22;2801;50.972;7.856;2022-07-06T10:33:45;19.70;82.70
5556;DHT22;2801;50.972;7.856;2022-07-06T10:36:14;19.60;82.90
5556;DHT22;2801;50.972;7.856;2022-07-06T10:38:48;19.70;83.30
5556;DHT22;2801;50.972;7.856;2022-07-06T10:41:16;19.90;82.80
5556;DHT22;2801;50.972;7.856;2022-07-06T10:43:46;20.30;82.00
5556;DHT22;2801;50.972;7.856;2022-07-06T10:46:15;20.60;82.10
5556;DHT22;2801;50.972;7.856;2022-07-06T10:48:46;20.70;81.30
5556;DHT22;2801;50.972;7.856;2022-07-06T10:51:24;21.60;79.50
5556;DHT22;2801;50.972;7.856;2022-07-06T10:54:04;22.30;76.70
5556;DHT22;2801;50.972;7.856;2022-07-06T10:57:01;22.10;77.10
5556;DHT22;2801;50.972;7.856;2022-07-06T10:59:36;21.70;77.90
5556;DHT22;2801;50.972;7.856;2022-07-06T11:02:16;21.30;79.40
5556;DHT22;2801;50.972;7.856;2022-07-06T11:04:47;21.00;79.50
5556;DHT22;2801;50.972;7.856;2022-07-06T11:07:17;20.70;80.10
5556;DHT22;2801;50.972;7.856;2022-07-06T11:09:59;20.20;80.80
5556;DHT22;2801;50.972;7.856;2022-07-06T11:12:26;20.00;82.50
5556;DHT22;2801;50.972;7.856;2022-07-06T11:14:53;19.80;83.20
5556;DHT22;2801;50.972;7.856;2022-07-06T11:17:21;19.90;83.60
5556;DHT22;2801;50.972;7.856;2022-07-06T11:19:58;20.10;83.60
5556;DHT22;2801;50.972;7.856;2022-07-06T11:22:37;20.00;83.00
5556;DHT22;2801;50.972;7.856;2022-07-06T11:25:05;19.70;82.90
5556;DHT22;2801;50.972;7.856;2022-07-06T11:27:35;19.60;83.90
5556;DHT22;2801;50.972;7.856;2022-07-06T11:30:03;19.40;84.60
5556;DHT22;2801;50.972;7.856;2022-07-06T11:32:35;19.40;85.00
5556;DHT22;2801;50.972;7.856;2022-07-06T11:35:02;19.40;85.50
5556;DHT22;2801;50.972;7.856;2022-07-06T11:37:29;19.30;84.80
5556;DHT22;2801;50.972;7.856;2022-07-06T11:39:56;19.30;85.50
5556;DHT22;2801;50.972;7.856;2022-07-06T11:42:23;19.40;85.30
5556;DHT22;2801;50.972;7.856;2022-07-06T11:44:53;19.40;84.80
5556;DHT22;2801;50.972;7.856;2022-07-06T11:47:20;19.40;85.60
5556;DHT22;2801;50.972;7.856;2022-07-06T11:49:51;19.50;85.40
5556;DHT22;2801;50.972;7.856;2022-07-06T11:52:19;19.60;85.10
5556;DHT22;2801;50.972;7.856;2022-07-06T11:54:46;19.70;84.80
5556;DHT22;2801;50.972;7.856;2022-07-06T11:57:13;19.90;84.60
5556;DHT22;2801;50.972;7.856;2022-07-06T11:59:41;20.00;83.80
5556;DHT22;2801;50.972;7.856;2022-07-06T12:02:14;20.10;84.30
5556;DHT22;2801;50.972;7.856;2022-07-06T12:04:43;20.40;85.30
5556;DHT22;2801;50.972;7.856;2022-07-06T12:07:14;20.60;85.00
5556;DHT22;2801;50.972;7.856;2022-07-06T12:09:44;20.90;84.60
5556;DHT22;2801;50.972;7.856;2022-07-06T12:12:13;21.00;82.20
5556;DHT22;2801;50.972;7.856;2022-07-06T12:14:41;21.00;82.70
5556;DHT22;2801;50.972;7.856;2022-07-06T12:17:13;20.90;81.10
5556;DHT22;2801;50.972;7.856;2022-07-06T12:19:42;20.60;80.20
5556;DHT22;2801;50.972;7.856;2022-07-06T12:22:10;20.50;79.90
5556;DHT22;2801;50.972;7.856;2022-07-06T12:24:42;20.20;78.00
5556;DHT22;2801;50.972;7.856;2022-07-06T12:27:17;20.10;78.70
5556;DHT22;2801;50.972;7.856;2022-07-06T12:29:47;20.00;77.90
5556;DHT22;2801;50.972;7.856;2022-07-06T12:32:19;19.90;78.20
5556;DHT22;2801;50.972;7.856;2022-07-06T12:35:06;19.80;78.20
5556;DHT22;2801;50.972;7.856;2022-07-06T12:37:35;19.70;78.00
5556;DHT22;2801;50.972;7.856;2022-07-06T12:40:12;19.80;80.00
5556;DHT22;2801;50.972;7.856;2022-07-06T12:42:46;20.10;80.20
5556;DHT22;2801;50.972;7.856;2022-07-06T12:45:14;20.50;78.70
5556;DHT22;2801;50.972;7.856;2022-07-06T12:47:48;20.70;78.40
5556;DHT22;2801;50.972;7.856;2022-07-06T12:50:34;20.70;79.00
5556;DHT22;2801;50.972;7.856;2022-07-06T12:53:04;20.80;76.70
5556;DHT22;2801;50.972;7.856;2022-07-06T12:55:32;20.80;76.30
5556;DHT22;2801;50.972;7.856;2022-07-06T12:57:59;20.70;77.80
5556;DHT22;2801;50.972;7.856;2022-07-06T13:00:26;20.70;77.80
5556;DHT22;2801;50.972;7.856;2022-07-06T13:02:53;20.40;77.60
5556;DHT22;2801;50.972;7.856;2022-07-06T13:05:49;20.20;78.20
5556;DHT22;2801;50.972;7.856;2022-07-06T13:08:16;20.00;78.20
5556;DHT22;2801;50.972;7.856;2022-07-06T13:10:43;19.90;78.10
5556;DHT22;2801;50.972;7.856;2022-07-06T13:13:11;19.70;78.20
5556;DHT22;2801;50.972;7.856;2022-07-06T13:15:41;19.70;78.90
5556;DHT22;2801;50.972;7.856;2022-07-06T13:18:09;19.70;78.80
5556;DHT22;2801;50.972;7.856;2022-07-06T13:20:39;19.70;79.00
5556;DHT22;2801;50.972;7.856;2022-07-06T13:23:07;19.80;79.20
5556;DHT22;2801;50.972;7.856;2022-07-06T13:25:34;20.00;79.60
5556;DHT22;2801;50.972;7.856;2022-07-06T13:28:01;20.20;80.10
5556;DHT22;2801;50.972;7.856;2022-07-06T13:30:28;20.40;80.10
5556;DHT22;2801;50.972;7.856;2022-07-06T13:32:56;20.60;81.30
5556;DHT22;2801;50.972;7.856;2022-07-06T13:35:23;20.70;81.60
5556;DHT22;2801;50.972;7.856;2022-07-06T13:37:50;21.00;82.00
5556;DHT22;2801;50.972;7.856;2022-07-06T13:40:17;21.20;78.80
5556;DHT22;2801;50.972;7.856;2022-07-06T13:42:44;21.00;78.60
5556;DHT22;2801;50.972;7.856;2022-07-06T13:45:12;21.00;78.80
5556;DHT22;2801;50.972;7.856;2022-07-06T13:47:39;21.00;78.60
5556;DHT22;2801;50.972;7.856;2022-07-06T13:50:06;21.00;78.60
5556;DHT22;2801;50.972;7.856;2022-07-06T13:52:33;21.10;77.60
5556;DHT22;2801;50.972;7.856;2022-07-06T13:55:00;21.10;77.60
5556;DHT22;2801;50.972;7.856;2022-07-06T13:57:28;21.20;76.70
5556;DHT22;2801;50.972;7.856;2022-07-06T13:59:55;21.30;77.70
5556;DHT22;2801;50.972;7.856;2022-07-06T14:02:22;21.40;78.30
5556;DHT22;2801;50.972;7.856;2022-07-06T14:04:50;21.30;78.40
5556;DHT22;2801;50.972;7.856;2022-07-06T14:07:17;21.20;76.90
5556;DHT22;2801;50.972;7.856;2022-07-06T14:09:46;21.00;77.60
5556;DHT22;2801;50.972;7.856;2022-07-06T14:12:18;20.90;77.90
5556;DHT22;2801;50.972;7.856;2022-07-06T14:14:46;21.00;78.90
5556;DHT22;2801;50.972;7.856;2022-07-06T14:17:12;21.20;78.90
5556;DHT22;2801;50.972;7.856;2022-07-06T14:19:40;21.30;78.90
5556;DHT22;2801;50.972;7.856;2022-07-06T14:22:07;21.50;78.20
5556;DHT22;2801;50.972;7.856;2022-07-06T14:24:34;21.70;78.90
5556;DHT22;2801;50.972;7.856;2022-07-06T14:27:01;21.80;78.40
5556;DHT22;2801;50.972;7.856;2022-07-06T14:29:28;21.80;76.90
5556;DHT22;2801;50.972;7.856;2022-07-06T14:31:55;21.70;75.90
5556;DHT22;2801;50.972;7.856;2022-07-06T14:34:22;21.60;75.30
5556;DHT22;2801;50.972;7.856;2022-07-06T14:36:50;21.40;76.30
5556;DHT22;2801;50.972;7.856;2022-07-06T14:39:17;21.30;74.60
5556;DHT22;2801;50.972;7.856;2022-07-06T14:41:44;21.30;75.00
5556;DHT22;2801;50.972;7.856;2022-07-06T14:44:11;21.20;75.30
5556;DHT22;2801;50.972;7.856;2022-07-06T14:46:38;21.20;75.70
5556;DHT22;2801;50.972;7.856;2022-07-06T14:49:06;21.30;75.60
5556;DHT22;2801;50.972;7.856;2022-07-06T14:51:32;21.30;74.20
5556;DHT22;2801;50.972;7.856;2022-07-06T14:53:59;21.40;74.70
5556;DHT22;2801;50.972;7.856;2022-07-06T14:56:26;21.50;75.30
5556;DHT22;2801;50.972;7.856;2022-07-06T14:58:53;21.50;75.60
5556;DHT22;2801;50.972;7.856;2022-07-06T15:01:40;21.80;75.80
5556;DHT22;2801;50.972;7.856;2022-07-06T15:04:08;22.20;76.40
5556;DHT22;2801;50.972;7.856;2022-07-06T15:06:35;22.40;75.90
5556;DHT22;2801;50.972;7.856;2022-07-06T15:09:19;22.50;74.10
5556;DHT22;2801;50.972;7.856;2022-07-06T15:11:46;22.50;74.50
5556;DHT22;2801;50.972;7.856;2022-07-06T15:14:13;22.40;73.20
5556;DHT22;2801;50.972;7.856;2022-07-06T15:16:42;22.50;73.20
5556;DHT22;2801;50.972;7.856;2022-07-06T15:19:10;22.30;72.30
5556;DHT22;2801;50.972;7.856;2022-07-06T15:21:38;22.20;72.10
5556;DHT22;2801;50.972;7.856;2022-07-06T15:24:05;22.20;73.60
5556;DHT22;2801;50.972;7.856;2022-07-06T15:26:32;22.50;73.20
5556;DHT22;2801;50.972;7.856;2022-07-06T15:29:00;22.50;72.80
5556;DHT22;2801;50.972;7.856;2022-07-06T15:31:27;22.40;71.10
5556;DHT22;2801;50.972;7.856;2022-07-06T15:33:54;22.10;69.90
5556;DHT22;2801;50.972;7.856;2022-07-06T15:36:21;21.90;70.50
5556;DHT22;2801;50.972;7.856;2022-07-06T15:38:48;21.90;71.90
5556;DHT22;2801;50.972;7.856;2022-07-06T15:41:15;22.10;73.50
5556;DHT22;2801;50.972;7.856;2022-07-06T15:43:42;22.30;71.00
5556;DHT22;2801;50.972;7.856;2022-07-06T15:46:11;22.10;70.20
5556;DHT22;2801;50.972;7.856;2022-07-06T15:48:38;21.70;69.50
5556;DHT22;2801;50.972;7.856;2022-07-06T15:51:05;21.30;69.70
5556;DHT22;2801;50.972;7.856;2022-07-06T15:53:33;21.00;70.50
5556;DHT22;2801;50.972;7.856;2022-07-06T15:55:59;21.10;72.60
5556;DHT22;2801;50.972;7.856;2022-07-06T15:58:27;21.40;73.20
5556;DHT22;2801;50.972;7.856;2022-07-06T16:00:54;21.70;73.70
5556;DHT22;2801;50.972;7.856;2022-07-06T16:03:21;22.10;72.70
5556;DHT22;2801;50.972;7.856;2022-07-06T16:05:49;22.20;70.80
5556;DHT22;2801;50.972;7.856;2022-07-06T16:08:37;22.10;70.90
5556;DHT22;2801;50.972;7.856;2022-07-06T16:11:14;22.20;71.70
5556;DHT22;2801;50.972;7.856;2022-07-06T16:13:43;22.00;70.80
5556;DHT22;2801;50.972;7.856;2022-07-06T16:16:22;21.70;70.30
5556;DHT22;2801;50.972;7.856;2022-07-06T16:18:53;21.30;70.70
5556;DHT22;2801;50.972;7.856;2022-07-06T16:21:20;21.00;72.10
5556;DHT22;2801;50.972;7.856;2022-07-06T16:23:47;20.80;71.70
5556;DHT22;2801;50.972;7.856;2022-07-06T16:26:14;20.60;72.50
5556;DHT22;2801;50.972;7.856;2022-07-06T16:28:41;20.50;72.80
5556;DHT22;2801;50.972;7.856;2022-07-06T16:31:09;20.40;73.80
5556;DHT22;2801;50.972;7.856;2022-07-06T16:33:36;20.70;74.30
5556;DHT22;2801;50.972;7.856;2022-07-06T16:36:08;20.60;74.50